Terminal Aerodrome Forecast
Issued by NWS

Home | Current Version | Previous Version | Text Only | Print | Product List | Glossary On
Versions: 1 2 3 4 5 6 7 8 9 10 11 12 13 14 15 16 17 18 19 20 21 22 23 24
000
FTUS45 KCYS 240500
TAFAIA
TAF
KAIA 240520Z 2406/2506 15017KT P6SM SCT150
     FM241000 17011KT P6SM SCT200
     FM241800 23013G21KT P6SM SCT120
     FM250100 23010KT P6SM SCT150=

USA.gov is the U.S. government's official web portal to all federal, state and local government web resources and services.